Kufra Airport


Codes: HLKF/AKF
Name: Kufra Airport
City: Kufra
Country: Libya
Elevation: 1367 ft.
Wikipedia:

Photos at Kufra Airport


   Photos courtesy of SpottingLog. You can add your own sightings and photos by signing up for a free trial today.



No photos found.

Weather at Kufra Airport


Time (UTC)DescriptionTempratureWindCloud coverageVisibilityPressureHumidity
19-Apr-2024 06:00Clear Sky20°C16 mph, NE0%10000m1015hPa28%
19-Apr-2024 09:00Clear Sky25°C13 mph, NE0%10000m1015hPa20%
19-Apr-2024 12:00Clear Sky33°C9 mph, NE0%10000m1011hPa11%
19-Apr-2024 15:00Clear Sky33°C7 mph, NE0%10000m1009hPa11%
19-Apr-2024 18:00Clear Sky27°C9 mph, NE0%10000m1010hPa14%
19-Apr-2024 21:00Clear Sky25°C11 mph, NE0%10000m1010hPa16%
20-Apr-2024 00:00Clear Sky22°C11 mph, NE0%10000m1010hPa17%
20-Apr-2024 03:00Clear Sky20°C9 mph, NE0%10000m1011hPa17%
20-Apr-2024 06:00Clear Sky24°C9 mph, NE0%10000m1012hPa12%
20-Apr-2024 09:00Clear Sky32°C9 mph, NE0%10000m1011hPa9%
20-Apr-2024 12:00Clear Sky35°C11 mph, NE0%10000m1009hPa7%
20-Apr-2024 15:00Clear Sky35°C13 mph, NE0%10000m1008hPa7%
20-Apr-2024 18:00Clear Sky28°C13 mph, NE0%10000m1010hPa9%
20-Apr-2024 21:00Clear Sky25°C13 mph, NE0%10000m1011hPa11%
21-Apr-2024 00:00Clear Sky22°C11 mph, NE0%10000m1010hPa14%
21-Apr-2024 03:00Clear Sky21°C11 mph, NE0%10000m1011hPa15%
21-Apr-2024 06:00Clear Sky24°C16 mph, NE1%10000m1012hPa12%
21-Apr-2024 09:00Clear Sky34°C16 mph, E0%10000m1011hPa6%
21-Apr-2024 12:00Clear Sky37°C9 mph, SE0%10000m1009hPa6%
21-Apr-2024 15:00Scattered Clouds37°C7 mph, E33%10000m1007hPa6%
21-Apr-2024 18:00Scattered Clouds31°C9 mph, NE37%10000m1008hPa9%
21-Apr-2024 21:00Clear Sky27°C13 mph, E4%10000m1010hPa11%
22-Apr-2024 00:00Clear Sky26°C13 mph, E3%10000m1009hPa14%
22-Apr-2024 03:00Scattered Clouds23°C9 mph, E50%10000m1009hPa16%
22-Apr-2024 06:00Broken Clouds28°C16 mph, SE63%10000m1011hPa13%
22-Apr-2024 09:00Few Clouds37°C22 mph, SE15%10000m1010hPa8%
22-Apr-2024 12:00Few Clouds41°C20 mph, S21%10000m1007hPa6%
22-Apr-2024 15:00Scattered Clouds40°C13 mph, S26%10000m1006hPa6%
22-Apr-2024 18:00Broken Clouds34°C11 mph, SE64%10000m1007hPa9%
22-Apr-2024 21:00Broken Clouds31°C16 mph, SE58%10000m1008hPa12%
23-Apr-2024 00:00Broken Clouds29°C16 mph, SE65%10000m1008hPa12%
23-Apr-2024 03:00Overcast Clouds26°C9 mph, SE92%10000m1008hPa12%
23-Apr-2024 06:00Broken Clouds30°C13 mph, S73%10000m1009hPa9%
23-Apr-2024 09:00Broken Clouds39°C18 mph, S77%10000m1008hPa6%
23-Apr-2024 12:00Scattered Clouds42°C13 mph, S39%10000m1006hPa5%
23-Apr-2024 15:00Overcast Clouds42°C9 mph, S99%10000m1004hPa5%
23-Apr-2024 18:00Overcast Clouds35°C9 mph, SE98%10000m1005hPa8%
23-Apr-2024 21:00Broken Clouds33°C11 mph, SE71%10000m1006hPa8%
24-Apr-2024 00:00Broken Clouds29°C9 mph, SE64%10000m1005hPa10%
24-Apr-2024 03:00Scattered Clouds27°C4 mph, E42%10000m1006hPa12%